Florence, Mississippi
Current Conditions -  °F | °C
As of 1:54 PM on Monday 24 Nov 2014 (Local Time) from KJAN Reporting Station
Clear Clear  
Wind Chill: 63°   Ceiling: Unl
Heat Index: 63°   Visibility: 10mi
Dew Point: 36°   Wind: 8mph
Humidity: 37%   Direction: 310°NW
Pressure: 29.93"   Gusts: NA
Location:  32.15°N, 90.13°W
Report Text: KJAN 241954Z 31007KT 280V010 10SM CLR 17/02 A2993 RMK AO2 SLP132 T01720022
Loading
Personal Weather Stations






























Interactive Weather Map New forecast layout! Learn more

10-Day Weather Forecast

Advertisements
Track Severe Weather on mobile